Debert, Canada
Current Conditions -  °F | °C
As of 4:09 AM on Friday 24 Oct 2014 (Local Time) from CYHZ Reporting Station
Rain Showers Rain Showers  
Wind Chill: 54°   Ceiling: 300
Heat Index: 54°   Visibility: 1.5mi
Dew Point: 52°   Wind: 18mph
Humidity: 94%   Direction: 70°ENE
Pressure: 29.59"   Gusts: 29mph
Location:  45.43°N, 63.45°W
Report Text: CYHZ 240709Z 07016G25KT 1 1/2SM -SHRA BR OVC003 12/11 A2959 RMK SF8 SLP022 DENSITY ALT 500FT
Loading
Personal Weather Stations






























Interactive Weather Map
Tropical Storm Tracking
New forecast layout! Learn more

10-Day Weather Forecast

Advertisements
Track Severe Weather on mobile